createdAt,value
2022-10-09T00:01:44.803Z,100747.08
2022-10-09T00:04:15.802Z,100742.49
2022-10-09T00:06:46.595Z,100743.52
2022-10-09T00:09:18.678Z,100743.36
2022-10-09T00:11:48.086Z,100743.56
2022-10-09T00:14:18.777Z,100743.92
2022-10-09T00:16:50.404Z,100741.55
2022-10-09T00:19:21.570Z,100741.20
2022-10-09T00:21:51.123Z,100732.16
2022-10-09T00:24:20.386Z,100724.14
2022-10-09T00:26:49.493Z,100716.64
2022-10-09T00:29:18.803Z,100717.67
2022-10-09T00:31:50.468Z,100712.05
2022-10-09T00:34:20.228Z,100713.25
2022-10-09T00:36:49.352Z,100705.25
2022-10-09T00:39:18.503Z,100709.53
2022-10-09T00:41:48.405Z,100705.61
2022-10-09T00:44:55.025Z,100715.86
2022-10-09T00:47:44.539Z,100710.76
2022-10-09T00:50:19.735Z,100707.34
2022-10-09T00:52:52.931Z,100705.31
2022-10-09T00:55:22.488Z,100699.69
2022-10-09T00:57:55.638Z,100691.52
2022-10-09T01:00:26.834Z,100695.93
2022-10-09T01:02:56.362Z,100690.47
2022-10-09T01:05:33.020Z,100688.77
2022-10-09T01:08:11.293Z,100692.34
2022-10-09T01:10:52.599Z,100687.91
2022-10-09T01:13:49.221Z,100683.50
2022-10-09T01:16:24.091Z,100689.10
2022-10-09T01:19:18.637Z,100686.73
2022-10-09T01:21:59.162Z,100683.14
2022-10-09T01:24:38.779Z,100686.39
2022-10-09T01:27:27.518Z,100680.59
2022-10-09T01:30:00.358Z,100680.08
2022-10-09T01:32:33.105Z,100677.36
2022-10-09T01:35:02.516Z,100671.37
2022-10-09T01:37:31.863Z,100673.43
2022-10-09T01:40:00.926Z,100675.48
2022-10-09T01:42:31.411Z,100677.19
2022-10-09T01:45:00.351Z,100680.09
2022-10-09T01:47:29.893Z,100679.41
2022-10-09T01:50:26.904Z,100686.92
2022-10-09T01:53:01.610Z,100684.87
2022-10-09T01:55:36.675Z,100679.59
2022-10-09T01:58:41.071Z,100682.66
2022-10-09T02:01:20.603Z,100676.84
2022-10-09T02:03:51.482Z,100672.58
2022-10-09T02:06:21.579Z,100679.75
2022-10-09T02:08:54.387Z,100675.50
2022-10-09T02:11:29.673Z,100680.63
2022-10-09T02:14:00.138Z,100678.06
2022-10-09T02:16:42.021Z,100680.63
2022-10-09T02:19:25.664Z,100678.06
2022-10-09T02:22:16.238Z,100676.36
2022-10-09T02:24:45.318Z,100673.47
2022-10-09T02:27:17.769Z,100677.58
2022-10-09T02:29:48.934Z,100680.66
2022-10-09T02:32:18.297Z,100678.63
2022-10-09T02:34:47.938Z,100672.49
2022-10-09T02:37:16.749Z,100681.54
2022-10-09T02:39:46.335Z,100676.44
2022-10-09T02:42:15.462Z,100673.36
2022-10-09T02:44:44.318Z,100675.58
2022-10-09T02:47:14.483Z,100680.35
2022-10-09T02:49:44.990Z,100672.00
2022-10-09T02:52:14.741Z,100663.31
2022-10-09T02:54:44.938Z,100668.43
2022-10-09T02:57:14.649Z,100661.95
2022-10-09T02:59:43.512Z,100665.37
2022-10-09T03:02:14.205Z,100661.27
2022-10-09T03:04:44.767Z,100660.42
2022-10-09T03:07:14.686Z,100655.83
2022-10-09T03:09:45.370Z,100658.90
2022-10-09T03:12:17.359Z,100655.64
2022-10-09T03:14:47.908Z,100659.39
2022-10-09T03:17:16.788Z,100654.11
2022-10-09T03:19:46.677Z,100650.53
2022-10-09T03:22:16.397Z,100650.19
2022-10-09T03:24:46.353Z,100643.03
2022-10-09T03:27:15.545Z,100642.36
2022-10-09T03:29:47.785Z,100642.19
2022-10-09T03:32:17.114Z,100646.28
2022-10-09T03:34:48.170Z,100647.83
2022-10-09T03:37:18.469Z,100647.32
2022-10-09T03:39:47.885Z,100649.03
2022-10-09T03:42:17.579Z,100643.41
2022-10-09T03:44:46.747Z,100645.62
2022-10-09T03:47:17.144Z,100645.45
2022-10-09T03:49:47.760Z,100641.87
2022-10-09T03:52:18.239Z,100635.05
2022-10-09T03:54:48.594Z,100634.37
2022-10-09T03:57:17.847Z,100636.08
2022-10-09T03:59:47.898Z,100631.48
2022-10-09T04:02:16.860Z,100632.50
2022-10-09T04:04:47.739Z,100639.33
2022-10-09T04:07:18.584Z,100638.47
2022-10-09T04:09:48.883Z,100641.20
2022-10-09T04:12:21.951Z,100643.92
2022-10-09T04:14:51.596Z,100639.33
2022-10-09T04:17:22.749Z,100639.49
2022-10-09T04:19:53.512Z,100640.00
2022-10-09T04:22:23.118Z,100643.92
2022-10-09T04:24:52.921Z,100639.84
2022-10-09T04:27:22.713Z,100633.36
2022-10-09T04:29:53.115Z,100630.30
2022-10-09T04:32:23.268Z,100630.47
2022-10-09T04:34:52.540Z,100634.90
2022-10-09T04:37:22.007Z,100633.70
2022-10-09T04:39:51.717Z,100633.36
2022-10-09T04:42:20.591Z,100637.45
2022-10-09T04:44:49.649Z,100637.45
2022-10-09T04:47:20.215Z,100641.55
2022-10-09T04:49:50.206Z,100641.88
2022-10-09T04:52:20.474Z,100642.39
2022-10-09T04:54:50.795Z,100644.27
2022-10-09T04:57:20.590Z,100645.28
2022-10-09T04:59:50.323Z,100656.02
2022-10-09T05:02:20.262Z,100658.05
2022-10-09T05:04:49.624Z,100658.55
2022-10-09T05:07:18.726Z,100658.88
2022-10-09T05:09:47.618Z,100654.13
2022-10-09T05:12:17.287Z,100644.23
2022-10-09T05:14:46.741Z,100645.92
2022-10-09T05:17:22.779Z,100642.31
2022-10-09T05:19:52.413Z,100640.77
2022-10-09T05:22:26.141Z,100636.99
2022-10-09T05:24:55.985Z,100640.05
2022-10-09T05:27:26.040Z,100644.97
2022-10-09T05:29:56.162Z,100647.84
2022-10-09T05:32:26.096Z,100641.02
2022-10-09T05:34:56.078Z,100634.34
2022-10-09T05:37:25.585Z,100638.56
2022-10-09T05:39:54.509Z,100645.50
2022-10-09T05:42:24.784Z,100644.93
2022-10-09T05:44:54.794Z,100650.16
2022-10-09T05:47:25.139Z,100652.33
2022-10-09T05:49:55.409Z,100655.00
2022-10-09T05:52:24.652Z,100649.33
2022-10-09T05:54:53.547Z,100658.02
2022-10-09T05:57:23.127Z,100656.44
2022-10-09T05:59:52.516Z,100654.16
2022-10-09T06:02:22.254Z,100653.42
2022-10-09T06:04:52.310Z,100656.97
2022-10-09T06:07:21.818Z,100656.09
2022-10-09T06:09:51.934Z,100652.98
2022-10-09T06:12:22.350Z,100652.09
2022-10-09T06:14:52.752Z,100651.06
2022-10-09T06:17:22.075Z,100663.19
2022-10-09T06:19:52.308Z,100650.51
2022-10-09T06:22:22.183Z,100649.98
2022-10-09T06:24:51.495Z,100647.73
2022-10-09T06:27:22.165Z,100660.34
2022-10-09T06:29:53.297Z,100652.94
2022-10-09T06:32:22.337Z,100661.28
2022-10-09T06:34:53.388Z,100657.81
2022-10-09T06:37:24.429Z,100657.77
2022-10-09T06:39:53.335Z,100663.20
2022-10-09T06:42:23.479Z,100659.71
2022-10-09T06:44:53.050Z,100654.00
2022-10-09T06:47:21.866Z,100654.43
2022-10-09T06:49:53.306Z,100661.70
2022-10-09T06:52:25.658Z,100664.23
2022-10-09T06:54:54.757Z,100662.11
2022-10-09T06:57:25.696Z,100659.79
2022-10-09T06:59:55.679Z,100655.28
2022-10-09T07:02:24.595Z,100657.59
2022-10-09T07:04:54.536Z,100658.52
2022-10-09T07:07:24.693Z,100658.61
2022-10-09T07:09:54.667Z,100646.87
2022-10-09T07:12:24.403Z,100652.77
2022-10-09T07:14:55.182Z,100650.81
2022-10-09T07:17:24.887Z,100650.89
2022-10-09T07:19:57.524Z,100654.55
2022-10-09T07:22:27.810Z,100643.66
2022-10-09T07:24:57.526Z,100641.14
2022-10-09T07:27:26.983Z,100634.09
2022-10-09T07:29:57.198Z,100634.61
2022-10-09T07:32:26.312Z,100627.22
2022-10-09T07:34:55.794Z,100628.57
2022-10-09T07:37:25.009Z,100627.17
2022-10-09T07:39:55.130Z,100625.81
2022-10-09T07:42:24.152Z,100634.82
2022-10-09T07:44:53.919Z,100632.08
2022-10-09T07:47:24.185Z,100627.02
2022-10-09T07:49:53.927Z,100623.28
2022-10-09T07:52:24.000Z,100627.25
2022-10-09T07:54:53.609Z,100623.30
2022-10-09T07:57:22.697Z,100621.14
2022-10-09T07:59:53.171Z,100629.00
2022-10-09T08:02:23.093Z,100623.04
2022-10-09T08:04:53.325Z,100620.23
2022-10-09T08:07:22.603Z,100618.99
2022-10-09T08:09:53.106Z,100623.27
2022-10-09T08:12:22.522Z,100618.81
2022-10-09T08:14:54.038Z,100616.57
2022-10-09T08:17:24.190Z,100611.56
2022-10-09T08:19:54.310Z,100610.14
2022-10-09T08:22:24.365Z,100610.03
2022-10-09T08:24:54.545Z,100612.63
2022-10-09T08:27:23.734Z,100609.27
2022-10-09T08:29:53.688Z,100607.86
2022-10-09T08:32:23.780Z,100607.47
2022-10-09T08:34:53.294Z,100610.84
2022-10-09T08:37:22.338Z,100608.92
2022-10-09T08:39:52.558Z,100607.47
2022-10-09T08:42:33.064Z,100598.79
2022-10-09T08:45:03.993Z,100596.04
2022-10-09T08:47:45.853Z,100587.72
2022-10-09T08:50:22.121Z,100579.51
2022-10-09T08:53:06.908Z,100577.67
2022-10-09T08:55:54.053Z,100575.30
2022-10-09T08:58:29.493Z,100566.63
2022-10-09T09:01:05.229Z,100561.70
2022-10-09T09:03:46.894Z,100555.94
2022-10-09T09:06:30.913Z,100568.23
2022-10-09T09:09:24.904Z,100574.44
2022-10-09T09:12:22.618Z,100574.28
2022-10-09T09:15:34.138Z,100577.73
2022-10-09T09:18:23.912Z,100573.15
2022-10-09T09:20:59.868Z,100569.84
2022-10-09T09:23:33.483Z,100566.05
2022-10-09T09:26:03.643Z,100565.91
2022-10-09T09:28:34.957Z,100557.61
2022-10-09T09:31:09.684Z,100565.30
2022-10-09T09:34:07.800Z,100564.69
2022-10-09T09:36:49.719Z,100561.92
2022-10-09T09:40:30.910Z,100558.08
2022-10-09T09:41:51.019Z,100557.61
2022-10-09T09:44:21.103Z,100564.60
2022-10-09T09:46:50.148Z,100558.60
2022-10-09T09:49:23.474Z,100558.47
2022-10-09T09:51:53.343Z,100552.00
2022-10-09T09:54:27.070Z,100563.21
2022-10-09T09:57:12.773Z,100564.97
2022-10-09T09:59:40.093Z,100562.27
2022-10-09T10:02:20.534Z,100554.81
2022-10-09T10:04:53.745Z,100558.97
2022-10-09T10:07:37.914Z,100554.65
2022-10-09T10:10:20.998Z,100559.41
2022-10-09T10:12:54.888Z,100555.90
2022-10-09T10:15:31.356Z,100558.19
2022-10-09T10:18:13.210Z,100557.79
2022-10-09T10:20:48.988Z,100553.40
2022-10-09T10:23:28.308Z,100554.31
2022-10-09T10:25:58.515Z,100546.91
2022-10-09T10:28:32.982Z,100549.88
2022-10-09T10:31:04.970Z,100553.16
2022-10-09T10:33:34.004Z,100546.66
2022-10-09T10:36:04.500Z,100546.48
2022-10-09T10:38:54.240Z,100540.77
2022-10-09T10:41:28.613Z,100541.38
2022-10-09T10:44:06.604Z,100543.91
2022-10-09T10:46:57.240Z,100533.67
2022-10-09T10:49:32.918Z,100531.20
2022-10-09T10:52:10.138Z,100530.90
2022-10-09T10:54:43.428Z,100524.45
2022-10-09T10:57:20.759Z,100526.92
2022-10-09T11:00:03.279Z,100524.33
2022-10-09T11:03:18.970Z,100524.50
2022-10-09T11:06:08.018Z,100526.06
2022-10-09T11:08:54.758Z,100529.78
2022-10-09T11:12:15.838Z,100529.12
2022-10-09T11:15:22.235Z,100525.67
2022-10-09T11:18:19.826Z,100520.31
2022-10-09T11:21:39.974Z,100516.33
2022-10-09T11:24:37.493Z,100516.50
2022-10-09T11:27:20.803Z,100518.42
2022-10-09T11:30:16.119Z,100517.82
2022-10-09T11:33:21.064Z,100515.89
2022-10-09T11:36:07.249Z,100510.36
2022-10-09T11:38:39.601Z,100519.03
2022-10-09T11:41:09.603Z,100517.55
2022-10-09T11:43:53.413Z,100514.30
2022-10-09T11:46:43.843Z,100519.59
2022-10-09T11:49:24.058Z,100514.42
2022-10-09T11:52:21.509Z,100512.02
2022-10-09T11:54:50.630Z,100501.48
2022-10-09T11:57:28.605Z,100505.95
2022-10-09T12:00:10.674Z,100514.86
2022-10-09T12:02:40.268Z,100518.84
2022-10-09T12:05:36.348Z,100530.69
2022-10-09T12:08:20.689Z,100530.56
2022-10-09T12:11:19.378Z,100537.53
2022-10-09T12:13:57.938Z,100530.41
2022-10-09T12:16:39.481Z,100537.27
2022-10-09T12:19:25.373Z,100541.45
2022-10-09T12:22:15.449Z,100542.17
2022-10-09T12:24:50.684Z,100550.39
2022-10-09T12:27:31.374Z,100558.33
2022-10-09T12:30:07.468Z,100574.78
2022-10-09T12:32:40.419Z,100578.20
2022-10-09T12:35:31.516Z,100581.73
2022-10-09T12:38:01.113Z,100568.81
2022-10-09T12:40:32.788Z,100593.03
2022-10-09T12:43:07.962Z,100596.21
2022-10-09T12:45:44.594Z,100606.97
2022-10-09T12:48:14.208Z,100605.59
2022-10-09T12:50:43.294Z,100610.67
2022-10-09T12:53:18.850Z,100608.05
2022-10-09T12:55:58.941Z,100605.45
2022-10-09T12:58:31.493Z,100603.92
2022-10-09T13:01:05.326Z,100610.66
2022-10-09T13:03:39.103Z,100615.48
2022-10-09T13:06:14.733Z,100619.73
2022-10-09T13:08:44.818Z,100617.72
2022-10-09T13:11:33.113Z,100623.78
2022-10-09T13:14:05.133Z,100621.57
2022-10-09T13:16:43.018Z,100622.86
2022-10-09T13:19:27.518Z,100628.60
2022-10-09T13:22:21.714Z,100630.52
2022-10-09T13:24:53.093Z,100630.31
2022-10-09T13:27:26.624Z,100640.81
2022-10-09T13:29:55.720Z,100638.91
2022-10-09T13:32:26.185Z,100642.83
2022-10-09T13:34:57.734Z,100641.41
2022-10-09T13:37:27.020Z,100643.85
2022-10-09T13:39:57.943Z,100642.58
2022-10-09T13:42:31.478Z,100642.26
2022-10-09T13:45:00.997Z,100646.06
2022-10-09T13:47:31.423Z,100643.63
2022-10-09T13:50:00.363Z,100645.86
2022-10-09T13:52:30.166Z,100651.58
2022-10-09T13:55:00.574Z,100645.11
2022-10-09T13:57:31.663Z,100647.23
2022-10-09T14:00:02.220Z,100643.95
2022-10-09T14:02:33.378Z,100642.36
2022-10-09T14:05:03.245Z,100646.39
2022-10-09T14:07:34.443Z,100649.14
2022-10-09T14:10:04.672Z,100647.77
2022-10-09T14:12:34.488Z,100654.33
2022-10-09T14:15:06.583Z,100656.02
2022-10-09T14:17:36.201Z,100658.56
2022-10-09T14:20:07.354Z,100655.28
2022-10-09T14:22:38.084Z,100659.52
2022-10-09T14:25:08.800Z,100664.50
2022-10-09T14:27:41.510Z,100656.88
2022-10-09T14:30:12.525Z,100668.20
2022-10-09T14:32:41.892Z,100671.28
2022-10-09T14:35:11.641Z,100675.41
2022-10-09T14:37:42.394Z,100666.62
2022-10-09T14:40:12.776Z,100669.05
2022-10-09T14:42:45.839Z,100676.67
2022-10-09T14:45:16.496Z,100678.90
2022-10-09T14:47:45.866Z,100682.29
2022-10-09T14:50:15.098Z,100686.42
2022-10-09T14:52:44.614Z,100692.98
2022-10-09T14:55:14.187Z,100698.48
2022-10-09T14:57:44.981Z,100701.24
2022-10-09T15:00:15.437Z,100706.75
2022-10-09T15:02:44.857Z,100710.34
2022-10-09T15:05:14.581Z,100700.39
2022-10-09T15:07:45.769Z,100703.67
2022-10-09T15:10:16.630Z,100704.52
2022-10-09T15:12:46.644Z,100711.41
2022-10-09T15:15:15.901Z,100707.17
2022-10-09T15:17:46.564Z,100706.74
2022-10-09T15:20:17.534Z,100711.40
2022-10-09T15:22:48.045Z,100708.97
2022-10-09T15:25:17.693Z,100719.66
2022-10-09T15:27:51.322Z,100719.98
2022-10-09T15:30:18.976Z,100723.05
2022-10-09T15:32:47.812Z,100732.69
2022-10-09T15:35:16.897Z,100732.16
2022-10-09T15:37:46.061Z,100730.78
2022-10-09T15:40:15.596Z,100738.51
2022-10-09T15:42:47.737Z,100738.19
2022-10-09T15:45:17.469Z,100745.39
2022-10-09T15:47:51.273Z,100739.89
2022-10-09T15:50:18.946Z,100746.24
2022-10-09T15:52:49.038Z,100755.34
2022-10-09T15:55:18.418Z,100755.03
2022-10-09T15:57:48.269Z,100757.98
2022-10-09T16:00:17.203Z,100766.78
2022-10-09T16:02:48.586Z,100774.72
2022-10-09T16:05:17.710Z,100776.09
2022-10-09T16:07:47.203Z,100778.52
2022-10-09T16:10:17.354Z,100780.31
2022-10-09T16:12:47.916Z,100782.22
2022-10-09T16:15:19.116Z,100781.38
2022-10-09T16:17:50.607Z,100782.22
2022-10-09T16:20:22.385Z,100784.12
2022-10-09T16:22:52.662Z,100791.00
2022-10-09T16:25:22.620Z,100792.80
2022-10-09T16:27:52.027Z,100790.57
2022-10-09T16:30:22.686Z,100801.79
2022-10-09T16:32:52.606Z,100790.45
2022-10-09T16:35:22.447Z,100797.87
2022-10-09T16:37:55.489Z,100791.52
2022-10-09T16:40:49.846Z,100798.39
2022-10-09T16:42:59.917Z,100791.92
2022-10-09T16:45:31.268Z,100795.20
2022-10-09T16:48:00.070Z,100799.02
2022-10-09T16:50:29.662Z,100798.38
2022-10-09T16:53:00.153Z,100797.94
2022-10-09T16:55:29.833Z,100790.73
2022-10-09T16:57:59.293Z,100793.58
2022-10-09T17:00:29.263Z,100792.41
2022-10-09T17:02:59.194Z,100791.23
2022-10-09T17:05:29.748Z,100793.98
2022-10-09T17:07:59.493Z,100792.81
2022-10-09T17:10:29.496Z,100795.73
2022-10-09T17:12:58.800Z,100792.55
2022-10-09T17:15:29.762Z,100786.28
2022-10-09T17:18:01.843Z,100789.45
2022-10-09T17:20:32.379Z,100791.23
2022-10-09T17:23:02.709Z,100795.20
2022-10-09T17:25:34.245Z,100799.53
2022-10-09T17:28:07.859Z,100802.48
2022-10-09T17:30:40.286Z,100802.89
2022-10-09T17:33:10.526Z,100815.80
2022-10-09T17:35:40.702Z,100816.00
2022-10-09T17:38:10.450Z,100808.69
2022-10-09T17:40:40.830Z,100808.69
2022-10-09T17:43:10.523Z,100814.06
2022-10-09T17:45:41.961Z,100815.64
2022-10-09T17:48:23.569Z,100817.54
2022-10-09T17:50:53.811Z,100817.74
2022-10-09T17:53:24.302Z,100814.47
2022-10-09T17:55:55.363Z,100818.27
2022-10-09T17:58:24.510Z,100817.09
2022-10-09T18:00:53.599Z,100826.80
2022-10-09T18:03:22.913Z,100822.43
2022-10-09T18:05:52.921Z,100826.31
2022-10-09T18:08:22.049Z,100827.03
2022-10-09T18:11:01.641Z,100827.23
2022-10-09T18:13:32.011Z,100830.84
2022-10-09T18:16:08.312Z,100836.41
2022-10-09T18:18:39.666Z,100839.56
2022-10-09T18:21:11.153Z,100840.80
2022-10-09T18:23:41.121Z,100845.33
2022-10-09T18:26:12.241Z,100845.20
2022-10-09T18:28:44.712Z,100845.08
2022-10-09T18:31:19.137Z,100852.34
2022-10-09T18:33:49.732Z,100853.39
2022-10-09T18:36:22.834Z,100853.07
2022-10-09T18:38:55.140Z,100858.44
2022-10-09T18:41:25.491Z,100854.88
2022-10-09T18:43:55.333Z,100857.70
2022-10-09T18:46:25.884Z,100857.44
2022-10-09T18:48:55.134Z,100867.58
2022-10-09T18:51:26.499Z,100871.37
2022-10-09T18:53:59.770Z,100873.99
2022-10-09T18:56:31.454Z,100876.94
2022-10-09T18:59:01.773Z,100880.73
2022-10-09T19:01:33.601Z,100890.22
2022-10-09T19:04:04.069Z,100888.37
2022-10-09T19:06:32.958Z,100888.25
2022-10-09T19:09:02.569Z,100892.95
2022-10-09T19:11:33.580Z,100894.52
2022-10-09T19:14:03.912Z,100901.59
2022-10-09T19:16:36.182Z,100897.86
2022-10-09T19:19:06.212Z,100891.05
2022-10-09T19:21:36.119Z,100901.91
2022-10-09T19:24:06.824Z,100905.36
2022-10-09T19:26:37.194Z,100899.02
2022-10-09T19:29:06.222Z,100902.30
2022-10-09T19:31:36.492Z,100901.64
2022-10-09T19:34:06.773Z,100904.91
2022-10-09T19:36:36.585Z,100913.34
2022-10-09T19:39:07.251Z,100909.41
2022-10-09T19:41:38.462Z,100917.64
2022-10-09T19:44:09.080Z,100914.24
2022-10-09T19:46:39.207Z,100913.91
2022-10-09T19:49:09.424Z,100915.31
2022-10-09T19:51:39.426Z,100911.58
2022-10-09T19:54:09.797Z,100917.94
2022-10-09T19:56:40.940Z,100918.47
2022-10-09T19:59:11.083Z,100911.08
2022-10-09T20:01:40.733Z,100912.13
2022-10-09T20:04:10.300Z,100916.11
2022-10-09T20:06:41.482Z,100919.38
2022-10-09T20:09:11.268Z,100921.13
2022-10-09T20:11:42.360Z,100929.22
2022-10-09T20:14:12.777Z,100920.33
2022-10-09T20:16:43.647Z,100923.79
2022-10-09T20:19:12.548Z,100919.53
2022-10-09T20:21:43.525Z,100922.33
2022-10-09T20:24:13.612Z,100923.89
2022-10-09T20:26:43.749Z,100910.55
2022-10-09T20:29:14.618Z,100918.45
2022-10-09T20:31:48.755Z,100916.94
2022-10-09T20:34:17.914Z,100919.03
2022-10-09T20:36:49.172Z,100919.41
2022-10-09T20:39:19.357Z,100929.91
2022-10-09T20:41:51.803Z,100928.40
2022-10-09T20:44:21.376Z,100932.70
2022-10-09T20:46:52.039Z,100931.19
2022-10-09T20:49:20.953Z,100936.67
2022-10-09T20:51:51.157Z,100931.38
2022-10-09T20:54:21.751Z,100936.53
2022-10-09T20:56:52.577Z,100928.69
2022-10-09T20:59:23.185Z,100938.33
2022-10-09T21:01:53.105Z,100933.41
2022-10-09T21:04:22.556Z,100946.64
2022-10-09T21:06:52.325Z,100938.77
2022-10-09T21:09:23.122Z,100944.58
2022-10-09T21:11:53.936Z,100946.66
2022-10-09T21:14:23.537Z,100948.55
2022-10-09T21:16:53.785Z,100940.84
2022-10-09T21:19:23.986Z,100943.95
2022-10-09T21:21:53.153Z,100943.81
2022-10-09T21:24:22.138Z,100952.22
2022-10-09T21:26:56.593Z,100946.08
2022-10-09T21:29:26.906Z,100950.89
2022-10-09T21:31:56.712Z,100954.34
2022-10-09T21:34:26.618Z,100956.75
2022-10-09T21:37:19.689Z,100949.56
2022-10-09T21:39:27.660Z,100950.78
2022-10-09T21:41:57.621Z,100951.30
2022-10-09T21:44:30.202Z,100949.27
2022-10-09T21:46:59.326Z,100954.56
2022-10-09T21:49:29.051Z,100956.13
2022-10-09T21:51:58.752Z,100956.64
2022-10-09T21:54:29.040Z,100953.38
2022-10-09T21:56:58.369Z,100951.16
2022-10-09T21:59:28.917Z,100956.30
2022-10-09T22:02:00.217Z,100955.97
2022-10-09T22:04:29.748Z,100955.13
2022-10-09T22:06:59.111Z,100958.56
2022-10-09T22:09:28.956Z,100952.23
2022-10-09T22:12:00.404Z,100961.68
2022-10-09T22:14:32.521Z,100967.34
2022-10-09T22:17:03.102Z,100964.45
2022-10-09T22:19:33.417Z,100967.90
2022-10-09T22:22:02.288Z,100967.56
2022-10-09T22:24:31.976Z,100973.90
2022-10-09T22:27:02.783Z,100968.60
2022-10-09T22:29:32.649Z,100976.16
2022-10-09T22:32:01.765Z,100976.52
2022-10-09T22:34:30.528Z,100971.23
2022-10-09T22:37:00.270Z,100977.23
2022-10-09T22:39:29.388Z,100972.45
2022-10-09T22:41:58.955Z,100972.11
2022-10-09T22:44:28.070Z,100967.34
2022-10-09T22:46:57.795Z,100974.55
2022-10-09T22:49:27.562Z,100981.06
2022-10-09T22:51:56.997Z,100980.73
2022-10-09T22:54:26.992Z,100984.84
2022-10-09T22:56:56.082Z,100988.62
2022-10-09T22:59:24.830Z,100993.58
2022-10-09T23:01:56.335Z,100992.39
2022-10-09T23:04:27.033Z,100993.42
2022-10-09T23:06:57.851Z,100993.09
2022-10-09T23:09:30.123Z,100988.46
2022-10-09T23:12:00.599Z,100988.31
2022-10-09T23:14:31.397Z,100990.38
2022-10-09T23:17:01.429Z,100993.14
2022-10-09T23:19:31.549Z,100992.81
2022-10-09T23:22:00.546Z,100995.73
2022-10-09T23:24:30.103Z,101002.09
2022-10-09T23:26:59.817Z,101002.97
2022-10-09T23:29:30.189Z,101003.47
2022-10-09T23:32:00.601Z,101010.84
2022-10-09T23:34:29.996Z,101004.84
2022-10-09T23:36:59.730Z,100999.37
2022-10-09T23:39:28.752Z,101001.28
2022-10-09T23:41:59.036Z,101002.48
2022-10-09T23:44:27.693Z,101007.47
2022-10-09T23:46:57.523Z,101002.87
2022-10-09T23:49:26.851Z,101000.16
2022-10-09T23:51:55.621Z,101004.47
2022-10-09T23:54:25.243Z,101004.83
2022-10-09T23:56:55.556Z,101007.40
2022-10-09T23:59:25.216Z,101013.56
